createdAt,value
2018-10-05T00:00:10.978Z,13.30
2018-10-05T00:02:39.396Z,13.40
2018-10-05T00:05:08.028Z,13.40
2018-10-05T00:07:36.518Z,13.40
2018-10-05T00:10:05.079Z,13.40
2018-10-05T00:12:33.971Z,13.40
2018-10-05T00:15:02.548Z,13.40
2018-10-05T00:17:30.992Z,13.40
2018-10-05T00:19:59.409Z,13.40
2018-10-05T00:22:27.930Z,13.40
2018-10-05T00:24:56.376Z,13.40
2018-10-05T00:27:24.847Z,13.40
2018-10-05T00:29:53.306Z,13.30
2018-10-05T00:32:21.897Z,13.30
2018-10-05T00:34:50.362Z,13.20
2018-10-05T00:37:18.828Z,13.10
2018-10-05T00:39:47.280Z,13.00
2018-10-05T00:42:15.733Z,12.90
2018-10-05T00:44:44.199Z,12.80
2018-10-05T00:47:12.627Z,12.70
2018-10-05T00:49:41.059Z,12.60
2018-10-05T00:52:09.667Z,12.50
2018-10-05T00:54:38.106Z,12.40
2018-10-05T00:57:06.586Z,12.40
2018-10-05T00:59:35.097Z,12.30
2018-10-05T01:02:03.577Z,12.30
2018-10-05T01:04:32.024Z,12.20
2018-10-05T01:07:00.466Z,12.20
2018-10-05T01:09:28.901Z,12.10
2018-10-05T01:11:57.381Z,12.10
2018-10-05T01:14:25.801Z,12.10
2018-10-05T01:16:54.245Z,12.10
2018-10-05T01:19:22.741Z,12.10
2018-10-05T01:21:51.179Z,12.10
2018-10-05T01:24:19.718Z,12.20
2018-10-05T01:26:48.313Z,12.20
2018-10-05T01:29:16.788Z,12.20
2018-10-05T01:31:45.308Z,12.20
2018-10-05T01:34:13.755Z,12.20
2018-10-05T01:36:42.271Z,12.20
2018-10-05T01:39:10.723Z,12.20
2018-10-05T01:41:39.156Z,12.20
2018-10-05T01:44:07.620Z,12.10
2018-10-05T01:46:36.100Z,12.10
2018-10-05T01:49:04.572Z,12.20
2018-10-05T01:51:37.858Z,12.10
2018-10-05T01:54:07.167Z,12.20
2018-10-05T01:56:36.108Z,12.10
2018-10-05T01:59:04.678Z,12.10
2018-10-05T02:01:34.013Z,12.10
2018-10-05T02:04:02.570Z,12.10
2018-10-05T02:06:31.075Z,12.10
2018-10-05T02:08:59.521Z,12.00
2018-10-05T02:11:28.026Z,11.90
2018-10-05T02:13:56.466Z,11.90
2018-10-05T02:16:25.014Z,11.80
2018-10-05T02:18:53.503Z,11.80
2018-10-05T02:21:21.958Z,11.70
2018-10-05T02:23:50.412Z,11.70
2018-10-05T02:26:18.864Z,11.60
2018-10-05T02:28:47.348Z,11.60
2018-10-05T02:31:15.853Z,11.50
2018-10-05T02:33:44.318Z,11.40
2018-10-05T02:36:13.488Z,11.40
2018-10-05T02:38:42.138Z,11.30
2018-10-05T02:41:10.644Z,11.20
2018-10-05T02:46:13.964Z,11.10
2018-10-05T02:48:42.460Z,11.00
2018-10-05T02:51:11.003Z,10.90
2018-10-05T02:53:39.733Z,10.80
2018-10-05T02:56:08.256Z,10.80
2018-10-05T02:58:36.786Z,10.70
2018-10-05T03:01:16.567Z,10.70
2018-10-05T03:03:45.117Z,10.60
2018-10-05T03:06:13.580Z,10.60
2018-10-05T03:08:42.025Z,10.50
2018-10-05T03:11:10.587Z,10.50
2018-10-05T03:13:39.034Z,10.50
2018-10-05T03:16:07.622Z,10.40
2018-10-05T03:18:36.875Z,10.40
2018-10-05T03:21:05.413Z,10.40
2018-10-05T03:23:34.907Z,10.40
2018-10-05T03:26:03.708Z,10.30
2018-10-05T03:28:32.180Z,10.30
2018-10-05T03:31:07.306Z,10.30
2018-10-05T03:33:35.775Z,10.20
2018-10-05T03:36:04.247Z,10.20
2018-10-05T03:38:32.712Z,10.20
2018-10-05T03:41:03.011Z,10.20
2018-10-05T03:43:31.906Z,10.20
2018-10-05T03:46:00.408Z,10.10
2018-10-05T03:48:28.903Z,10.10
2018-10-05T03:50:57.339Z,10.10
2018-10-05T03:53:25.872Z,10.20
2018-10-05T03:55:55.335Z,10.10
2018-10-05T03:58:23.830Z,10.10
2018-10-05T04:00:52.290Z,10.10
2018-10-05T04:03:20.811Z,10.00
2018-10-05T04:05:49.298Z,10.00
2018-10-05T04:08:17.777Z,10.00
2018-10-05T04:10:46.368Z,10.00
2018-10-05T04:13:15.248Z,10.00
2018-10-05T04:15:43.754Z,10.00
2018-10-05T04:18:12.292Z,9.90
2018-10-05T04:20:40.928Z,9.90
2018-10-05T04:23:09.921Z,9.90
2018-10-05T04:25:38.460Z,9.90
2018-10-05T04:28:07.513Z,9.90
2018-10-05T04:30:36.056Z,9.90
2018-10-05T04:33:04.529Z,9.90
2018-10-05T04:35:34.375Z,9.90
2018-10-05T04:38:03.244Z,9.90
2018-10-05T04:40:31.789Z,9.90
2018-10-05T04:43:00.266Z,9.80
2018-10-05T04:45:28.775Z,9.80
2018-10-05T04:47:57.364Z,9.80
2018-10-05T04:50:25.846Z,9.80
2018-10-05T04:52:54.447Z,9.70
2018-10-05T04:55:23.005Z,9.70
2018-10-05T04:57:51.488Z,9.70
2018-10-05T05:00:20.097Z,9.70
2018-10-05T05:02:48.528Z,9.70
2018-10-05T05:05:17.270Z,9.70
2018-10-05T05:07:45.733Z,9.60
2018-10-05T05:10:14.208Z,9.60
2018-10-05T05:12:42.828Z,9.50
2018-10-05T05:15:11.618Z,9.50
2018-10-05T05:17:40.201Z,9.50
2018-10-05T05:20:08.677Z,9.50
2018-10-05T05:22:37.143Z,9.50
2018-10-05T05:25:05.609Z,9.50
2018-10-05T05:27:34.237Z,9.40
2018-10-05T05:30:02.668Z,9.40
2018-10-05T05:32:31.701Z,9.40
2018-10-05T05:35:00.185Z,9.30
2018-10-05T05:37:28.651Z,9.30
2018-10-05T05:39:58.020Z,9.30
2018-10-05T05:42:26.442Z,9.30
2018-10-05T05:44:54.978Z,9.30
2018-10-05T05:47:23.543Z,9.20
2018-10-05T05:49:52.360Z,9.20
2018-10-05T05:52:20.856Z,9.20
2018-10-05T05:54:49.360Z,9.30
2018-10-05T05:57:17.852Z,9.40
2018-10-05T05:59:46.416Z,9.60
2018-10-05T06:02:14.993Z,9.80
2018-10-05T06:04:44.077Z,10.00
2018-10-05T06:07:12.544Z,10.30
2018-10-05T06:09:41.018Z,10.40
2018-10-05T06:12:09.501Z,10.70
2018-10-05T06:14:38.146Z,10.90
2018-10-05T06:17:06.652Z,11.10
2018-10-05T06:19:35.146Z,11.30
2018-10-05T06:22:03.719Z,11.50
2018-10-05T06:24:32.125Z,11.80
2018-10-05T06:27:00.676Z,11.90
2018-10-05T06:29:29.181Z,12.20
2018-10-05T06:31:57.681Z,12.30
2018-10-05T06:34:26.168Z,12.50
2018-10-05T06:36:54.646Z,12.80
2018-10-05T06:39:23.129Z,13.00
2018-10-05T06:41:51.715Z,13.10
2018-10-05T06:44:20.251Z,13.20
2018-10-05T06:46:48.725Z,13.00
2018-10-05T06:49:17.229Z,13.30
2018-10-05T06:51:45.690Z,13.40
2018-10-05T06:54:14.212Z,13.80
2018-10-05T06:56:42.659Z,13.90
2018-10-05T06:59:11.382Z,14.00
2018-10-05T07:01:39.861Z,14.30
2018-10-05T07:04:08.503Z,14.20
2018-10-05T07:06:37.013Z,14.40
2018-10-05T07:09:06.566Z,14.70
2018-10-05T07:11:35.095Z,15.00
2018-10-05T07:14:04.337Z,15.30
2018-10-05T07:16:32.874Z,15.30
2018-10-05T07:19:01.368Z,15.40
2018-10-05T07:21:30.033Z,15.10
2018-10-05T07:23:58.582Z,15.30
2018-10-05T07:26:27.061Z,15.70
2018-10-05T07:28:55.540Z,16.10
2018-10-05T07:31:24.026Z,16.30
2018-10-05T07:33:52.634Z,16.60
2018-10-05T07:36:21.098Z,16.80
2018-10-05T07:38:49.735Z,17.30
2018-10-05T07:41:18.227Z,16.80
2018-10-05T07:43:46.721Z,17.10
2018-10-05T07:46:15.500Z,17.10
2018-10-05T07:48:45.767Z,16.80
2018-10-05T07:51:14.226Z,17.20
2018-10-05T07:53:42.692Z,17.00
2018-10-05T07:56:11.127Z,17.00
2018-10-05T07:58:46.224Z,17.40
2018-10-05T08:01:14.650Z,17.60
2018-10-05T08:03:43.103Z,17.50
2018-10-05T08:06:11.568Z,17.60
2018-10-05T08:08:40.034Z,17.80
2018-10-05T08:11:08.674Z,18.10
2018-10-05T08:13:37.267Z,18.30
2018-10-05T08:16:05.736Z,18.30
2018-10-05T08:18:34.240Z,18.60
2018-10-05T08:21:02.715Z,19.20
2018-10-05T08:23:31.920Z,19.20
2018-10-05T08:26:00.499Z,20.10
2018-10-05T08:28:29.010Z,20.20
2018-10-05T08:30:57.473Z,20.40
2018-10-05T08:33:26.056Z,20.70
2018-10-05T08:35:54.520Z,20.80
2018-10-05T08:38:22.995Z,21.60
2018-10-05T08:40:51.657Z,22.00
2018-10-05T08:43:20.228Z,22.50
2018-10-05T08:45:48.789Z,22.50
2018-10-05T08:48:17.233Z,22.30
2018-10-05T08:50:45.724Z,22.40
2018-10-05T08:53:14.259Z,22.70
2018-10-05T08:55:42.741Z,22.50
2018-10-05T08:58:11.208Z,22.50
2018-10-05T09:00:39.670Z,22.00
2018-10-05T09:03:08.205Z,22.50
2018-10-05T09:05:36.732Z,22.80
2018-10-05T09:08:05.298Z,22.70
2018-10-05T09:10:33.809Z,23.00
2018-10-05T09:13:03.232Z,23.00
2018-10-05T09:15:31.718Z,23.80
2018-10-05T09:18:00.650Z,24.20
2018-10-05T09:20:29.214Z,24.40
2018-10-05T09:22:57.943Z,24.10
2018-10-05T09:25:26.430Z,24.20
2018-10-05T09:27:54.984Z,23.90
2018-10-05T09:30:23.451Z,24.00
2018-10-05T09:32:51.906Z,24.40
2018-10-05T09:35:20.383Z,24.70
2018-10-05T09:37:49.082Z,25.00
2018-10-05T09:40:17.598Z,24.70
2018-10-05T09:42:46.210Z,25.20
2018-10-05T09:45:14.849Z,25.10
2018-10-05T09:47:43.301Z,25.10
2018-10-05T09:50:11.781Z,25.00
2018-10-05T09:52:40.800Z,25.00
2018-10-05T09:55:09.659Z,25.30
2018-10-05T09:57:38.106Z,25.20
2018-10-05T10:00:06.719Z,25.70
2018-10-05T10:02:40.665Z,25.60
2018-10-05T10:05:09.329Z,26.00
2018-10-05T10:07:37.800Z,26.10
2018-10-05T10:10:06.364Z,25.70
2018-10-05T10:12:34.830Z,25.50
2018-10-05T10:15:03.283Z,26.20
2018-10-05T10:17:31.813Z,26.20
2018-10-05T10:20:01.007Z,25.90
2018-10-05T10:22:29.518Z,25.90
2018-10-05T10:24:57.950Z,25.40
2018-10-05T10:27:26.408Z,25.60
2018-10-05T10:29:54.878Z,26.30
2018-10-05T10:32:23.450Z,26.30
2018-10-05T10:34:51.910Z,26.10
2018-10-05T10:37:20.467Z,25.80
2018-10-05T10:39:48.984Z,26.40
2018-10-05T10:42:17.517Z,27.10
2018-10-05T10:44:46.024Z,27.20
2018-10-05T10:47:14.525Z,26.30
2018-10-05T10:49:43.012Z,26.50
2018-10-05T10:52:11.573Z,26.60
2018-10-05T10:54:40.077Z,26.60
2018-10-05T10:57:08.549Z,26.80
2018-10-05T10:59:37.031Z,26.70
2018-10-05T11:02:05.535Z,26.30
2018-10-05T11:04:34.098Z,26.10
2018-10-05T11:07:02.552Z,26.00
2018-10-05T11:09:31.040Z,26.40
2018-10-05T11:11:59.487Z,26.20
2018-10-05T11:14:27.929Z,26.50
2018-10-05T11:16:56.460Z,26.70
2018-10-05T11:19:24.903Z,26.30
2018-10-05T11:21:53.471Z,26.60
2018-10-05T11:24:21.918Z,26.00
2018-10-05T11:26:50.396Z,26.00
2018-10-05T11:29:18.962Z,25.70
2018-10-05T11:31:47.441Z,25.00
2018-10-05T11:34:16.131Z,24.90
2018-10-05T11:36:44.559Z,24.80
2018-10-05T11:39:13.105Z,24.70
2018-10-05T11:41:41.558Z,24.30
2018-10-05T11:44:09.992Z,24.60
2018-10-05T11:46:38.467Z,24.60
2018-10-05T11:49:06.994Z,24.60
2018-10-05T11:51:35.506Z,25.00
2018-10-05T11:54:04.014Z,25.00
2018-10-05T11:56:32.496Z,24.80
2018-10-05T11:59:01.060Z,25.20
2018-10-05T12:01:29.989Z,25.40
2018-10-05T12:03:58.450Z,25.30
2018-10-05T12:06:26.978Z,25.60
2018-10-05T12:08:55.416Z,25.50
2018-10-05T12:11:23.991Z,25.70
2018-10-05T12:13:52.642Z,26.00
2018-10-05T12:16:21.163Z,26.40
2018-10-05T12:18:49.680Z,26.70
2018-10-05T12:21:18.135Z,26.90
2018-10-05T12:23:46.589Z,27.10
2018-10-05T12:26:15.040Z,27.30
2018-10-05T12:28:43.599Z,27.20
2018-10-05T12:31:12.087Z,27.10
2018-10-05T12:33:40.593Z,26.80
2018-10-05T12:36:09.022Z,26.80
2018-10-05T12:38:37.482Z,26.50
2018-10-05T12:41:06.346Z,26.60
2018-10-05T12:43:34.813Z,26.10
2018-10-05T12:46:03.933Z,26.60
2018-10-05T12:48:32.464Z,26.80
2018-10-05T12:51:00.953Z,26.20
2018-10-05T12:53:29.404Z,26.00
2018-10-05T12:55:57.906Z,25.80
2018-10-05T12:58:26.383Z,25.80
2018-10-05T13:00:54.870Z,26.00
2018-10-05T13:03:23.306Z,26.00
2018-10-05T13:05:51.896Z,26.00
2018-10-05T13:08:20.467Z,26.10
2018-10-05T13:10:48.924Z,26.20
2018-10-05T13:13:17.408Z,25.80
2018-10-05T13:15:46.004Z,25.80
2018-10-05T13:18:14.550Z,25.60
2018-10-05T13:20:43.120Z,25.80
2018-10-05T13:23:11.605Z,26.20
2018-10-05T13:25:40.055Z,26.10
2018-10-05T13:28:08.829Z,26.10
2018-10-05T13:30:37.384Z,26.30
2018-10-05T13:33:06.035Z,26.40
2018-10-05T13:35:34.529Z,25.70
2018-10-05T13:38:03.084Z,26.20
2018-10-05T13:40:31.713Z,26.30
2018-10-05T13:43:00.173Z,26.60
2018-10-05T13:45:28.632Z,26.60
2018-10-05T13:47:57.187Z,26.40
2018-10-05T13:50:25.637Z,26.00
2018-10-05T13:52:54.127Z,26.00
2018-10-05T13:55:22.727Z,25.50
2018-10-05T13:57:51.308Z,25.50
2018-10-05T14:00:19.765Z,24.80
2018-10-05T14:02:48.336Z,24.90
2018-10-05T14:05:16.999Z,24.50
2018-10-05T14:07:45.695Z,24.40
2018-10-05T14:10:14.200Z,24.90
2018-10-05T14:12:42.746Z,25.00
2018-10-05T14:15:11.204Z,25.00
2018-10-05T14:17:39.707Z,25.00
2018-10-05T14:20:08.233Z,24.80
2018-10-05T14:22:36.799Z,24.70
2018-10-05T14:25:05.293Z,24.80
2018-10-05T14:27:33.796Z,24.90
2018-10-05T14:30:02.284Z,24.70
2018-10-05T14:32:30.773Z,24.30
2018-10-05T14:34:59.288Z,23.50
2018-10-05T14:37:27.923Z,22.70
2018-10-05T14:39:56.489Z,22.40
2018-10-05T14:42:25.001Z,22.30
2018-10-05T14:44:53.576Z,22.10
2018-10-05T14:47:22.265Z,22.00
2018-10-05T14:49:50.837Z,21.90
2018-10-05T14:52:26.929Z,21.80
2018-10-05T14:54:56.220Z,21.60
2018-10-05T14:57:24.804Z,21.50
2018-10-05T14:59:54.209Z,21.40
2018-10-05T15:02:22.730Z,21.20
2018-10-05T15:04:51.277Z,21.10
2018-10-05T15:07:19.773Z,21.10
2018-10-05T15:09:48.263Z,20.90
2018-10-05T15:12:16.840Z,20.90
2018-10-05T15:14:45.392Z,20.80
2018-10-05T15:17:13.939Z,20.70
2018-10-05T15:19:42.576Z,20.60
2018-10-05T15:22:11.292Z,20.50
2018-10-05T15:24:40.063Z,20.50
2018-10-05T15:27:09.288Z,20.40
2018-10-05T15:29:37.936Z,20.30
2018-10-05T15:32:07.274Z,20.20
2018-10-05T15:34:38.660Z,20.20
2018-10-05T15:37:07.180Z,20.10
2018-10-05T15:39:35.692Z,20.10
2018-10-05T15:42:04.181Z,20.00
2018-10-05T15:44:32.638Z,19.90
2018-10-05T15:47:03.511Z,19.90
2018-10-05T15:49:33.008Z,19.80
2018-10-05T15:52:01.701Z,19.70
2018-10-05T15:54:30.292Z,19.70
2018-10-05T15:56:58.798Z,19.60
2018-10-05T15:59:27.981Z,19.50
2018-10-05T16:01:57.251Z,19.40
2018-10-05T16:04:26.505Z,19.30
2018-10-05T16:06:55.562Z,19.30
2018-10-05T16:09:24.048Z,19.20
2018-10-05T16:11:52.498Z,19.10
2018-10-05T16:14:21.003Z,19.00
2018-10-05T16:16:49.475Z,19.00
2018-10-05T16:19:18.383Z,18.90
2018-10-05T16:21:46.864Z,18.90
2018-10-05T16:24:32.884Z,18.80
2018-10-05T16:27:02.504Z,18.70
2018-10-05T16:29:31.053Z,18.70
2018-10-05T16:31:59.641Z,18.50
2018-10-05T16:34:28.160Z,18.50
2018-10-05T16:36:56.677Z,18.30
2018-10-05T16:39:25.251Z,18.30
2018-10-05T16:41:53.730Z,18.20
2018-10-05T16:44:22.224Z,18.20
2018-10-05T16:46:50.698Z,18.00
2018-10-05T16:49:19.183Z,17.90
2018-10-05T16:51:47.624Z,17.80
2018-10-05T16:54:16.226Z,17.70
2018-10-05T16:56:44.832Z,17.70
2018-10-05T16:59:13.323Z,17.60
2018-10-05T17:01:41.828Z,17.60
2018-10-05T17:04:10.368Z,17.50
2018-10-05T17:06:38.833Z,17.40
2018-10-05T17:09:10.517Z,17.40
2018-10-05T17:11:44.340Z,17.30
2018-10-05T17:14:12.875Z,17.20
2018-10-05T17:16:41.595Z,17.20
2018-10-05T17:19:10.084Z,17.10
2018-10-05T17:21:38.590Z,17.00
2018-10-05T17:24:07.089Z,16.90
2018-10-05T17:26:35.589Z,16.90
2018-10-05T17:29:04.041Z,16.80
2018-10-05T17:31:32.504Z,16.80
2018-10-05T17:34:01.053Z,16.70
2018-10-05T17:36:29.855Z,16.60
2018-10-05T17:38:58.476Z,16.60
2018-10-05T17:41:27.335Z,16.50
2018-10-05T17:43:55.907Z,16.40
2018-10-05T17:46:24.355Z,16.40
2018-10-05T17:48:52.858Z,16.30
2018-10-05T17:51:21.536Z,16.20
2018-10-05T17:53:50.090Z,16.20
2018-10-05T17:56:18.707Z,16.10
2018-10-05T17:58:47.166Z,16.00
2018-10-05T18:01:15.859Z,15.90
2018-10-05T18:03:44.351Z,15.90
2018-10-05T18:06:13.739Z,15.80
2018-10-05T18:08:42.349Z,15.80
2018-10-05T18:11:10.824Z,15.80
2018-10-05T18:13:39.388Z,15.70
2018-10-05T18:16:07.885Z,15.60
2018-10-05T18:18:36.393Z,15.50
2018-10-05T18:21:05.391Z,15.40
2018-10-05T18:23:33.906Z,15.40
2018-10-05T18:26:02.456Z,15.40
2018-10-05T18:28:30.905Z,15.40
2018-10-05T18:30:59.446Z,15.30
2018-10-05T18:33:27.920Z,15.30
2018-10-05T18:35:56.402Z,15.20
2018-10-05T18:38:24.893Z,15.20
2018-10-05T18:40:53.344Z,15.10
2018-10-05T18:43:21.802Z,15.10
2018-10-05T18:45:50.550Z,15.10
2018-10-05T18:48:19.133Z,15.10
2018-10-05T18:50:47.621Z,15.10
2018-10-05T18:53:16.120Z,15.20
2018-10-05T18:55:45.400Z,15.20
2018-10-05T18:58:13.892Z,15.10
2018-10-05T19:00:42.402Z,15.10
2018-10-05T19:03:10.988Z,15.10
2018-10-05T19:05:40.298Z,15.10
2018-10-05T19:08:09.062Z,15.00
2018-10-05T19:10:37.677Z,14.90
2018-10-05T19:13:06.205Z,14.90
2018-10-05T19:15:34.727Z,14.80
2018-10-05T19:18:03.367Z,14.80
2018-10-05T19:20:31.903Z,14.80
2018-10-05T19:23:00.552Z,14.70
2018-10-05T19:25:29.069Z,14.70
2018-10-05T19:27:57.577Z,14.70
2018-10-05T19:30:26.049Z,14.60
2018-10-05T19:32:54.637Z,14.60
2018-10-05T19:35:23.345Z,14.50
2018-10-05T19:37:52.009Z,14.40
2018-10-05T19:40:20.596Z,14.40
2018-10-05T19:42:49.115Z,14.40
2018-10-05T19:45:17.733Z,14.30
2018-10-05T19:47:46.345Z,14.30
2018-10-05T19:50:15.151Z,14.30
2018-10-05T19:52:43.673Z,14.20
2018-10-05T19:55:12.223Z,14.10
2018-10-05T19:57:40.912Z,14.00
2018-10-05T20:00:09.467Z,13.90
2018-10-05T20:02:38.380Z,13.90
2018-10-05T20:05:06.987Z,13.90
2018-10-05T20:07:35.605Z,13.80
2018-10-05T20:10:04.391Z,13.70
2018-10-05T20:12:32.908Z,13.70
2018-10-05T20:15:01.460Z,13.60
2018-10-05T20:17:30.030Z,13.50
2018-10-05T20:19:58.523Z,13.50
2018-10-05T20:22:27.196Z,13.50
2018-10-05T20:24:55.976Z,13.40
2018-10-05T20:27:24.585Z,13.40
2018-10-05T20:29:53.063Z,13.30
2018-10-05T20:32:21.651Z,13.30
2018-10-05T20:34:50.156Z,13.20
2018-10-05T20:37:19.472Z,13.20
2018-10-05T20:39:48.203Z,13.20
2018-10-05T20:42:16.812Z,13.10
2018-10-05T20:44:45.409Z,13.00
2018-10-05T20:47:13.866Z,12.90
2018-10-05T20:49:42.304Z,12.80
2018-10-05T20:52:10.921Z,12.90
2018-10-05T20:54:39.494Z,12.80
2018-10-05T20:57:08.144Z,12.80
2018-10-05T20:59:36.629Z,12.80
2018-10-05T21:02:05.320Z,12.70
2018-10-05T21:04:33.828Z,12.60
2018-10-05T21:07:02.391Z,12.50
2018-10-05T21:09:30.923Z,12.50
2018-10-05T21:12:00.363Z,12.40
2018-10-05T21:14:28.974Z,12.40
2018-10-05T21:16:57.468Z,12.30
2018-10-05T21:19:25.938Z,12.20
2018-10-05T21:21:55.248Z,12.10
2018-10-05T21:24:23.800Z,12.10
2018-10-05T21:26:52.355Z,12.00
2018-10-05T21:29:20.905Z,11.90
2018-10-05T21:31:49.414Z,11.80
2018-10-05T21:34:18.131Z,11.80
2018-10-05T21:36:46.616Z,11.70
2018-10-05T21:39:15.094Z,11.60
2018-10-05T21:41:43.631Z,11.50
2018-10-05T21:44:12.109Z,11.40
2018-10-05T21:46:40.832Z,11.30
2018-10-05T21:49:09.432Z,11.20
2018-10-05T21:51:37.949Z,11.20
2018-10-05T21:54:06.408Z,11.20
2018-10-05T21:56:34.940Z,11.20
2018-10-05T21:59:03.604Z,11.10
2018-10-05T22:01:32.125Z,11.00
2018-10-05T22:04:00.637Z,10.90
2018-10-05T22:06:29.183Z,10.80
2018-10-05T22:08:57.700Z,10.80
2018-10-05T22:11:26.208Z,10.70
2018-10-05T22:13:55.138Z,10.60
2018-10-05T22:16:23.654Z,10.50
2018-10-05T22:18:52.165Z,10.50
2018-10-05T22:21:20.636Z,10.40
2018-10-05T22:23:49.197Z,10.30
2018-10-05T22:26:17.657Z,10.30
2018-10-05T22:28:46.141Z,10.20
2018-10-05T22:31:14.663Z,10.20
2018-10-05T22:33:43.116Z,10.10
2018-10-05T22:36:11.625Z,10.10
2018-10-05T22:38:40.079Z,10.10
2018-10-05T22:41:08.578Z,10.10
2018-10-05T22:43:37.517Z,10.20
2018-10-05T22:46:06.093Z,10.20
2018-10-05T22:48:34.570Z,10.30
2018-10-05T22:51:03.256Z,10.40
2018-10-05T22:53:31.737Z,10.50
2018-10-05T22:56:00.175Z,10.50
2018-10-05T22:58:28.662Z,10.50
2018-10-05T23:00:57.194Z,10.50
2018-10-05T23:03:25.792Z,10.50
2018-10-05T23:05:54.346Z,10.40
2018-10-05T23:08:22.895Z,10.30
2018-10-05T23:10:51.366Z,10.30
2018-10-05T23:13:19.829Z,10.20
2018-10-05T23:15:48.282Z,10.20
2018-10-05T23:18:17.412Z,10.20
2018-10-05T23:20:46.047Z,10.20
2018-10-05T23:23:14.507Z,10.30
2018-10-05T23:25:42.968Z,10.20
2018-10-05T23:28:11.471Z,10.30
2018-10-05T23:30:39.914Z,10.20
2018-10-05T23:33:08.515Z,10.20
2018-10-05T23:35:37.066Z,10.20
2018-10-05T23:38:06.437Z,10.10
2018-10-05T23:40:35.016Z,10.10
2018-10-05T23:43:04.179Z,10.10
2018-10-05T23:45:32.664Z,10.00
2018-10-05T23:48:01.110Z,10.00
2018-10-05T23:50:29.667Z,10.00
2018-10-05T23:52:58.304Z,9.90
2018-10-05T23:55:26.913Z,10.00
2018-10-05T23:57:55.409Z,9.90
